sensor_id;sensor_type;location;lat;lon;timestamp;pressure;altitude;pressure_sealevel;temperature;humidity
64683;BME280;51107;47.652;19.016;2023-04-30T00:00:39;99768.44;;;11.24;82.54
64683;BME280;51107;47.652;19.016;2023-04-30T00:03:08;99764.50;;;11.20;83.66
64683;BME280;51107;47.652;19.016;2023-04-30T00:05:36;99767.06;;;11.12;85.50
64683;BME280;51107;47.652;19.016;2023-04-30T00:08:05;99769.31;;;11.07;86.51
64683;BME280;51107;47.652;19.016;2023-04-30T00:10:34;99768.31;;;10.99;87.34
64683;BME280;51107;47.652;19.016;2023-04-30T00:13:02;99773.56;;;10.81;88.36
64683;BME280;51107;47.652;19.016;2023-04-30T00:15:30;99770.75;;;10.75;89.26
64683;BME280;51107;47.652;19.016;2023-04-30T00:17:59;99774.94;;;10.76;89.27
64683;BME280;51107;47.652;19.016;2023-04-30T00:20:27;99771.94;;;10.62;89.11
64683;BME280;51107;47.652;19.016;2023-04-30T00:22:55;99764.78;;;10.64;89.53
64683;BME280;51107;47.652;19.016;2023-04-30T00:25:24;99770.75;;;10.57;89.24
64683;BME280;51107;47.652;19.016;2023-04-30T00:27:53;99764.66;;;10.48;90.26
64683;BME280;51107;47.652;19.016;2023-04-30T00:30:21;99762.03;;;10.48;90.31
64683;BME280;51107;47.652;19.016;2023-04-30T00:32:50;99771.28;;;10.42;90.80
64683;BME280;51107;47.652;19.016;2023-04-30T00:35:18;99759.53;;;10.38;90.99
64683;BME280;51107;47.652;19.016;2023-04-30T00:37:47;99763.13;;;10.27;91.43
64683;BME280;51107;47.652;19.016;2023-04-30T00:40:16;99771.78;;;10.28;91.61
64683;BME280;51107;47.652;19.016;2023-04-30T00:42:45;99770.78;;;10.29;91.76
64683;BME280;51107;47.652;19.016;2023-04-30T00:45:13;99765.09;;;10.25;91.78
64683;BME280;51107;47.652;19.016;2023-04-30T00:47:41;99769.44;;;10.25;92.43
64683;BME280;51107;47.652;19.016;2023-04-30T00:50:10;99762.31;;;10.27;90.59
64683;BME280;51107;47.652;19.016;2023-04-30T00:52:44;99763.50;;;10.32;89.93
64683;BME280;51107;47.652;19.016;2023-04-30T00:55:12;99758.41;;;10.41;88.12
64683;BME280;51107;47.652;19.016;2023-04-30T00:57:40;99755.31;;;10.63;83.63
64683;BME280;51107;47.652;19.016;2023-04-30T01:00:10;99757.03;;;10.73;83.92
64683;BME280;51107;47.652;19.016;2023-04-30T01:02:38;99752.25;;;10.86;81.81
64683;BME280;51107;47.652;19.016;2023-04-30T01:05:07;99751.38;;;10.77;84.48
64683;BME280;51107;47.652;19.016;2023-04-30T01:07:36;99744.53;;;10.76;86.25
64683;BME280;51107;47.652;19.016;2023-04-30T01:10:07;99743.19;;;10.72;87.36
64683;BME280;51107;47.652;19.016;2023-04-30T01:12:55;99750.72;;;10.57;87.32
64683;BME280;51107;47.652;19.016;2023-04-30T01:18:17;99752.81;;;10.35;86.54
64683;BME280;51107;47.652;19.016;2023-04-30T01:21:00;99745.00;;;10.53;85.25
64683;BME280;51107;47.652;19.016;2023-04-30T01:24:05;99754.81;;;10.60;84.63
64683;BME280;51107;47.652;19.016;2023-04-30T01:29:49;99752.53;;;10.39;86.70
64683;BME280;51107;47.652;19.016;2023-04-30T01:32:19;99756.91;;;10.38;84.41
64683;BME280;51107;47.652;19.016;2023-04-30T01:34:47;99756.13;;;10.38;84.28
64683;BME280;51107;47.652;19.016;2023-04-30T01:40:28;99754.38;;;10.46;84.40
64683;BME280;51107;47.652;19.016;2023-04-30T01:43:17;99745.62;;;10.47;85.93
64683;BME280;51107;47.652;19.016;2023-04-30T01:48:54;99757.75;;;10.39;87.14
64683;BME280;51107;47.652;19.016;2023-04-30T01:51:40;99750.59;;;10.41;88.37
64683;BME280;51107;47.652;19.016;2023-04-30T01:54:38;99753.34;;;10.39;87.89
64683;BME280;51107;47.652;19.016;2023-04-30T01:57:19;99750.94;;;10.28;88.64
64683;BME280;51107;47.652;19.016;2023-04-30T01:59:49;99755.94;;;10.21;88.78
64683;BME280;51107;47.652;19.016;2023-04-30T02:02:18;99751.47;;;10.13;89.14
64683;BME280;51107;47.652;19.016;2023-04-30T02:04:46;99752.41;;;9.94;90.38
64683;BME280;51107;47.652;19.016;2023-04-30T02:07:24;99749.47;;;10.07;90.32
64683;BME280;51107;47.652;19.016;2023-04-30T02:09:55;99740.78;;;9.89;90.99
64683;BME280;51107;47.652;19.016;2023-04-30T02:12:23;99742.53;;;9.98;91.11
64683;BME280;51107;47.652;19.016;2023-04-30T02:14:51;99754.66;;;10.07;92.18
64683;BME280;51107;47.652;19.016;2023-04-30T02:17:20;99753.31;;;10.03;91.67
64683;BME280;51107;47.652;19.016;2023-04-30T02:19:49;99750.94;;;10.28;89.13
64683;BME280;51107;47.652;19.016;2023-04-30T02:22:17;99756.66;;;10.67;85.06
64683;BME280;51107;47.652;19.016;2023-04-30T02:24:46;99753.03;;;10.86;84.33
64683;BME280;51107;47.652;19.016;2023-04-30T02:27:14;99753.16;;;11.03;83.58
64683;BME280;51107;47.652;19.016;2023-04-30T02:29:43;99741.50;;;11.15;82.13
64683;BME280;51107;47.652;19.016;2023-04-30T02:32:11;99742.06;;;11.27;81.33
64683;BME280;51107;47.652;19.016;2023-04-30T02:34:40;99741.87;;;11.29;81.32
64683;BME280;51107;47.652;19.016;2023-04-30T02:37:08;99735.56;;;11.31;81.41
64683;BME280;51107;47.652;19.016;2023-04-30T02:39:37;99744.69;;;11.35;81.26
64683;BME280;51107;47.652;19.016;2023-04-30T02:42:05;99743.56;;;11.38;79.99
64683;BME280;51107;47.652;19.016;2023-04-30T02:44:34;99744.94;;;11.50;79.67
64683;BME280;51107;47.652;19.016;2023-04-30T02:47:04;99742.97;;;11.52;78.97
64683;BME280;51107;47.652;19.016;2023-04-30T02:49:32;99745.38;;;11.46;80.29
64683;BME280;51107;47.652;19.016;2023-04-30T02:52:01;99738.56;;;11.45;80.88
64683;BME280;51107;47.652;19.016;2023-04-30T02:54:29;99739.34;;;11.45;81.55
64683;BME280;51107;47.652;19.016;2023-04-30T02:56:58;99751.44;;;11.46;80.98
64683;BME280;51107;47.652;19.016;2023-04-30T02:59:26;99757.63;;;11.45;80.89
64683;BME280;51107;47.652;19.016;2023-04-30T03:01:55;99754.66;;;11.40;81.41
64683;BME280;51107;47.652;19.016;2023-04-30T03:04:23;99748.44;;;11.33;81.37
64683;BME280;51107;47.652;19.016;2023-04-30T03:06:52;99747.06;;;11.20;82.53
64683;BME280;51107;47.652;19.016;2023-04-30T03:09:20;99750.16;;;11.16;82.84
64683;BME280;51107;47.652;19.016;2023-04-30T03:11:48;99747.19;;;11.11;83.41
64683;BME280;51107;47.652;19.016;2023-04-30T03:14:17;99735.78;;;11.12;83.55
64683;BME280;51107;47.652;19.016;2023-04-30T03:16:46;99744.47;;;11.20;83.97
64683;BME280;51107;47.652;19.016;2023-04-30T03:19:15;99750.19;;;11.24;84.63
64683;BME280;51107;47.652;19.016;2023-04-30T03:21:44;99757.69;;;11.27;84.66
64683;BME280;51107;47.652;19.016;2023-04-30T03:24:14;99756.41;;;11.31;85.10
64683;BME280;51107;47.652;19.016;2023-04-30T03:26:42;99747.75;;;11.31;85.44
64683;BME280;51107;47.652;19.016;2023-04-30T03:29:10;99757.37;;;11.30;86.49
64683;BME280;51107;47.652;19.016;2023-04-30T03:31:39;99758.34;;;11.29;86.32
64683;BME280;51107;47.652;19.016;2023-04-30T03:34:08;99759.97;;;11.30;86.77
64683;BME280;51107;47.652;19.016;2023-04-30T03:36:36;99766.59;;;11.16;86.77
64683;BME280;51107;47.652;19.016;2023-04-30T03:39:05;99762.19;;;11.17;87.25
64683;BME280;51107;47.652;19.016;2023-04-30T03:41:34;99757.13;;;11.15;87.58
64683;BME280;51107;47.652;19.016;2023-04-30T03:44:03;99757.94;;;11.08;88.01
64683;BME280;51107;47.652;19.016;2023-04-30T03:46:32;99757.13;;;11.15;88.56
64683;BME280;51107;47.652;19.016;2023-04-30T03:49:00;99764.66;;;11.18;88.86
64683;BME280;51107;47.652;19.016;2023-04-30T03:51:29;99761.22;;;11.18;89.53
64683;BME280;51107;47.652;19.016;2023-04-30T03:53:58;99771.00;;;11.16;90.06
64683;BME280;51107;47.652;19.016;2023-04-30T03:56:27;99765.16;;;11.22;90.90
64683;BME280;51107;47.652;19.016;2023-04-30T03:58:55;99767.94;;;11.20;91.54
64683;BME280;51107;47.652;19.016;2023-04-30T04:01:23;99773.28;;;11.19;90.79
64683;BME280;51107;47.652;19.016;2023-04-30T04:03:52;99773.28;;;11.19;90.60
64683;BME280;51107;47.652;19.016;2023-04-30T04:06:21;99772.97;;;11.22;90.28
64683;BME280;51107;47.652;19.016;2023-04-30T04:08:50;99781.94;;;11.19;91.34
64683;BME280;51107;47.652;19.016;2023-04-30T04:11:19;99786.53;;;11.26;91.43
64683;BME280;51107;47.652;19.016;2023-04-30T04:13:48;99778.41;;;11.29;91.80
64683;BME280;51107;47.652;19.016;2023-04-30T04:16:16;99785.88;;;11.24;92.50
64683;BME280;51107;47.652;19.016;2023-04-30T04:18:45;99789.59;;;11.21;93.28
64683;BME280;51107;47.652;19.016;2023-04-30T04:21:13;99785.16;;;11.13;94.75
64683;BME280;51107;47.652;19.016;2023-04-30T04:23:42;99789.78;;;11.28;94.61
64683;BME280;51107;47.652;19.016;2023-04-30T04:26:10;99796.91;;;11.17;95.78
64683;BME280;51107;47.652;19.016;2023-04-30T04:28:40;99792.72;;;11.25;96.68
64683;BME280;51107;47.652;19.016;2023-04-30T04:31:08;99790.06;;;11.16;97.98
64683;BME280;51107;47.652;19.016;2023-04-30T04:33:37;99797.56;;;11.19;98.83
64683;BME280;51107;47.652;19.016;2023-04-30T04:36:05;99796.09;;;11.17;99.33
64683;BME280;51107;47.652;19.016;2023-04-30T04:38:34;99792.88;;;11.23;99.60
64683;BME280;51107;47.652;19.016;2023-04-30T04:41:07;99797.47;;;11.29;99.63
64683;BME280;51107;47.652;19.016;2023-04-30T04:43:39;99799.16;;;11.38;99.49
64683;BME280;51107;47.652;19.016;2023-04-30T04:46:08;99805.69;;;11.43;100.00
64683;BME280;51107;47.652;19.016;2023-04-30T04:48:41;99805.41;;;11.54;99.26
64683;BME280;51107;47.652;19.016;2023-04-30T04:51:10;99802.34;;;11.59;99.32
64683;BME280;51107;47.652;19.016;2023-04-30T04:53:38;99806.94;;;11.65;99.58
64683;BME280;51107;47.652;19.016;2023-04-30T04:56:07;99822.28;;;11.68;99.73
64683;BME280;51107;47.652;19.016;2023-04-30T04:58:36;99826.03;;;11.65;100.00
64683;BME280;51107;47.652;19.016;2023-04-30T05:01:04;99830.12;;;11.76;98.54
64683;BME280;51107;47.652;19.016;2023-04-30T05:03:33;99837.69;;;11.79;97.10
64683;BME280;51107;47.652;19.016;2023-04-30T05:06:04;99839.16;;;11.82;97.13
64683;BME280;51107;47.652;19.016;2023-04-30T05:08:33;99846.13;;;11.73;98.12
64683;BME280;51107;47.652;19.016;2023-04-30T05:11:01;99841.72;;;11.73;98.28
64683;BME280;51107;47.652;19.016;2023-04-30T05:13:30;99851.84;;;11.77;98.23
64683;BME280;51107;47.652;19.016;2023-04-30T05:15:58;99849.09;;;11.78;98.27
64683;BME280;51107;47.652;19.016;2023-04-30T05:18:26;99848.75;;;11.81;97.72
64683;BME280;51107;47.652;19.016;2023-04-30T05:20:55;99846.81;;;11.83;97.71
64683;BME280;51107;47.652;19.016;2023-04-30T05:23:24;99838.88;;;11.93;97.87
64683;BME280;51107;47.652;19.016;2023-04-30T05:25:52;99847.44;;;12.12;95.58
64683;BME280;51107;47.652;19.016;2023-04-30T05:28:21;99843.25;;;12.35;94.19
64683;BME280;51107;47.652;19.016;2023-04-30T05:30:49;99842.44;;;12.35;94.22
64683;BME280;51107;47.652;19.016;2023-04-30T05:33:17;99844.88;;;12.36;93.62
64683;BME280;51107;47.652;19.016;2023-04-30T05:35:46;99849.50;;;12.51;93.10
64683;BME280;51107;47.652;19.016;2023-04-30T05:38:14;99845.56;;;12.47;92.72
64683;BME280;51107;47.652;19.016;2023-04-30T05:40:42;99851.28;;;12.58;91.69
64683;BME280;51107;47.652;19.016;2023-04-30T05:43:11;99843.78;;;12.64;91.81
64683;BME280;51107;47.652;19.016;2023-04-30T05:45:39;99839.69;;;12.61;92.17
64683;BME280;51107;47.652;19.016;2023-04-30T05:48:08;99849.00;;;12.64;92.11
64683;BME280;51107;47.652;19.016;2023-04-30T05:50:36;99857.19;;;12.77;92.12
64683;BME280;51107;47.652;19.016;2023-04-30T05:53:04;99864.53;;;12.98;89.91
64683;BME280;51107;47.652;19.016;2023-04-30T05:55:33;99862.53;;;13.25;88.42
64683;BME280;51107;47.652;19.016;2023-04-30T05:58:02;99859.13;;;13.33;88.61
64683;BME280;51107;47.652;19.016;2023-04-30T06:00:30;99856.66;;;13.56;85.32
64683;BME280;51107;47.652;19.016;2023-04-30T06:02:59;99861.69;;;13.66;82.76
64683;BME280;51107;47.652;19.016;2023-04-30T06:05:30;99860.53;;;13.68;82.87
64683;BME280;51107;47.652;19.016;2023-04-30T06:07:59;99858.06;;;13.75;81.32
64683;BME280;51107;47.652;19.016;2023-04-30T06:10:27;99862.50;;;13.58;81.33
64683;BME280;51107;47.652;19.016;2023-04-30T06:12:55;99851.41;;;13.56;80.10
64683;BME280;51107;47.652;19.016;2023-04-30T06:15:24;99853.84;;;13.57;77.85
64683;BME280;51107;47.652;19.016;2023-04-30T06:17:52;99855.00;;;13.55;76.88
64683;BME280;51107;47.652;19.016;2023-04-30T06:20:21;99863.69;;;13.55;77.46
64683;BME280;51107;47.652;19.016;2023-04-30T06:22:50;99865.84;;;13.44;77.03
64683;BME280;51107;47.652;19.016;2023-04-30T06:25:18;99866.00;;;13.50;77.35
64683;BME280;51107;47.652;19.016;2023-04-30T06:27:48;99868.53;;;13.75;76.27
64683;BME280;51107;47.652;19.016;2023-04-30T06:30:16;99860.12;;;13.88;75.91
64683;BME280;51107;47.652;19.016;2023-04-30T06:32:44;99871.47;;;14.12;75.56
64683;BME280;51107;47.652;19.016;2023-04-30T06:35:13;99875.19;;;14.25;74.98
64683;BME280;51107;47.652;19.016;2023-04-30T06:37:42;99863.16;;;14.39;76.43
64683;BME280;51107;47.652;19.016;2023-04-30T06:40:10;99874.31;;;14.33;77.37
64683;BME280;51107;47.652;19.016;2023-04-30T06:42:38;99867.75;;;14.37;76.99
64683;BME280;51107;47.652;19.016;2023-04-30T06:45:07;99877.66;;;14.50;76.53
64683;BME280;51107;47.652;19.016;2023-04-30T06:47:35;99884.59;;;14.74;74.44
64683;BME280;51107;47.652;19.016;2023-04-30T06:50:05;99883.88;;;14.81;75.31
64683;BME280;51107;47.652;19.016;2023-04-30T06:52:34;99890.94;;;14.80;73.20
64683;BME280;51107;47.652;19.016;2023-04-30T06:55:03;99888.50;;;14.78;73.58
64683;BME280;51107;47.652;19.016;2023-04-30T06:57:31;99882.31;;;14.71;74.10
64683;BME280;51107;47.652;19.016;2023-04-30T06:59:59;99880.16;;;14.75;75.54
64683;BME280;51107;47.652;19.016;2023-04-30T07:02:29;99870.72;;;14.66;74.25
64683;BME280;51107;47.652;19.016;2023-04-30T07:04:58;99882.03;;;14.58;73.66
64683;BME280;51107;47.652;19.016;2023-04-30T07:07:27;99876.97;;;14.65;74.77
64683;BME280;51107;47.652;19.016;2023-04-30T07:09:56;99885.66;;;14.57;73.03
64683;BME280;51107;47.652;19.016;2023-04-30T07:12:25;99886.22;;;14.44;73.84
64683;BME280;51107;47.652;19.016;2023-04-30T07:14:54;99869.53;;;14.68;73.18
64683;BME280;51107;47.652;19.016;2023-04-30T07:17:22;99871.53;;;14.66;73.46
64683;BME280;51107;47.652;19.016;2023-04-30T07:19:54;99868.12;;;15.04;73.64
64683;BME280;51107;47.652;19.016;2023-04-30T07:22:23;99867.72;;;15.15;71.60
64683;BME280;51107;47.652;19.016;2023-04-30T07:24:51;99863.66;;;15.42;69.75
64683;BME280;51107;47.652;19.016;2023-04-30T07:27:20;99876.09;;;15.63;69.72
64683;BME280;51107;47.652;19.016;2023-04-30T07:29:48;99875.62;;;15.75;67.53
64683;BME280;51107;47.652;19.016;2023-04-30T07:32:16;99870.81;;;16.08;69.03
64683;BME280;51107;47.652;19.016;2023-04-30T07:34:45;99884.66;;;16.54;64.23
64683;BME280;51107;47.652;19.016;2023-04-30T07:37:13;99879.47;;;16.60;62.91
64683;BME280;51107;47.652;19.016;2023-04-30T07:39:41;99881.59;;;17.15;61.47
64683;BME280;51107;47.652;19.016;2023-04-30T07:42:10;99886.44;;;17.46;58.03
64683;BME280;51107;47.652;19.016;2023-04-30T07:44:38;99890.56;;;17.56;59.46
64683;BME280;51107;47.652;19.016;2023-04-30T07:47:07;99885.44;;;17.76;59.25
64683;BME280;51107;47.652;19.016;2023-04-30T07:49:37;99893.47;;;18.03;56.62
64683;BME280;51107;47.652;19.016;2023-04-30T07:52:06;99883.47;;;18.40;56.42
64683;BME280;51107;47.652;19.016;2023-04-30T07:54:39;99887.37;;;18.64;55.79
64683;BME280;51107;47.652;19.016;2023-04-30T07:57:07;99896.34;;;18.76;54.96
64683;BME280;51107;47.652;19.016;2023-04-30T07:59:35;99896.97;;;18.92;52.89
64683;BME280;51107;47.652;19.016;2023-04-30T08:02:04;99903.63;;;18.74;53.65
64683;BME280;51107;47.652;19.016;2023-04-30T08:04:34;99906.53;;;18.99;53.83
64683;BME280;51107;47.652;19.016;2023-04-30T08:07:02;99906.50;;;19.46;51.66
64683;BME280;51107;47.652;19.016;2023-04-30T08:09:32;99903.03;;;19.52;51.09
64683;BME280;51107;47.652;19.016;2023-04-30T08:12:00;99901.37;;;19.85;51.39
64683;BME280;51107;47.652;19.016;2023-04-30T08:14:29;99902.75;;;19.94;51.14
64683;BME280;51107;47.652;19.016;2023-04-30T08:16:58;99907.06;;;19.75;50.86
64683;BME280;51107;47.652;19.016;2023-04-30T08:19:28;99905.22;;;19.89;50.48
64683;BME280;51107;47.652;19.016;2023-04-30T08:21:56;99906.03;;;19.83;49.99
64683;BME280;51107;47.652;19.016;2023-04-30T08:24:25;99909.63;;;20.09;49.75
64683;BME280;51107;47.652;19.016;2023-04-30T08:26:54;99893.78;;;19.95;49.89
64683;BME280;51107;47.652;19.016;2023-04-30T08:29:22;99898.38;;;20.20;48.95
64683;BME280;51107;47.652;19.016;2023-04-30T08:31:50;99902.19;;;20.31;49.56
64683;BME280;51107;47.652;19.016;2023-04-30T08:34:19;99891.06;;;20.54;48.25
64683;BME280;51107;47.652;19.016;2023-04-30T08:36:47;99891.63;;;20.24;48.50
64683;BME280;51107;47.652;19.016;2023-04-30T08:39:16;99895.84;;;20.39;47.99
64683;BME280;51107;47.652;19.016;2023-04-30T08:41:46;99889.59;;;20.65;46.83
64683;BME280;51107;47.652;19.016;2023-04-30T08:44:19;99895.94;;;20.57;48.59
64683;BME280;51107;47.652;19.016;2023-04-30T08:46:56;99901.69;;;20.86;48.58
64683;BME280;51107;47.652;19.016;2023-04-30T08:49:27;99886.69;;;21.24;47.48
64683;BME280;51107;47.652;19.016;2023-04-30T08:52:00;99897.06;;;21.50;45.08
64683;BME280;51107;47.652;19.016;2023-04-30T08:54:30;99896.81;;;21.52;44.39
64683;BME280;51107;47.652;19.016;2023-04-30T08:56:59;99884.50;;;21.20;44.44
64683;BME280;51107;47.652;19.016;2023-04-30T08:59:28;99883.53;;;21.15;48.45
64683;BME280;51107;47.652;19.016;2023-04-30T09:01:59;99886.19;;;21.77;44.60
64683;BME280;51107;47.652;19.016;2023-04-30T09:04:29;99894.63;;;21.49;44.47
64683;BME280;51107;47.652;19.016;2023-04-30T09:06:57;99888.06;;;21.88;43.98
64683;BME280;51107;47.652;19.016;2023-04-30T09:09:28;99892.00;;;21.67;43.67
64683;BME280;51107;47.652;19.016;2023-04-30T09:12:23;99892.38;;;21.71;43.37
64683;BME280;51107;47.652;19.016;2023-04-30T09:14:59;99893.84;;;21.85;44.20
64683;BME280;51107;47.652;19.016;2023-04-30T09:17:28;99885.72;;;21.80;44.79
64683;BME280;51107;47.652;19.016;2023-04-30T09:20:12;99892.25;;;22.15;43.42
64683;BME280;51107;47.652;19.016;2023-04-30T09:22:41;99887.59;;;22.29;43.29
64683;BME280;51107;47.652;19.016;2023-04-30T09:25:10;99881.44;;;22.16;42.18
64683;BME280;51107;47.652;19.016;2023-04-30T09:27:38;99873.72;;;21.59;43.99
64683;BME280;51107;47.652;19.016;2023-04-30T09:30:07;99876.00;;;22.23;42.79
64683;BME280;51107;47.652;19.016;2023-04-30T09:32:55;99878.94;;;22.33;40.21
64683;BME280;51107;47.652;19.016;2023-04-30T09:35:37;99882.28;;;21.80;43.43
64683;BME280;51107;47.652;19.016;2023-04-30T09:38:43;99867.09;;;22.05;45.06
64683;BME280;51107;47.652;19.016;2023-04-30T09:41:24;99867.56;;;22.14;42.16
64683;BME280;51107;47.652;19.016;2023-04-30T09:43:55;99871.87;;;22.46;43.44
64683;BME280;51107;47.652;19.016;2023-04-30T09:46:31;99862.97;;;22.52;42.04
64683;BME280;51107;47.652;19.016;2023-04-30T09:49:03;99856.81;;;21.60;41.34
64683;BME280;51107;47.652;19.016;2023-04-30T09:51:33;99863.25;;;21.83;42.33
64683;BME280;51107;47.652;19.016;2023-04-30T09:54:02;99859.81;;;21.82;41.50
64683;BME280;51107;47.652;19.016;2023-04-30T09:56:35;99863.63;;;21.86;40.66
64683;BME280;51107;47.652;19.016;2023-04-30T09:59:07;99858.56;;;21.85;42.42
64683;BME280;51107;47.652;19.016;2023-04-30T10:01:37;99859.94;;;22.36;40.88
64683;BME280;51107;47.652;19.016;2023-04-30T10:04:08;99856.00;;;21.78;40.88
64683;BME280;51107;47.652;19.016;2023-04-30T10:06:37;99865.00;;;20.90;41.91
64683;BME280;51107;47.652;19.016;2023-04-30T10:09:08;99849.66;;;21.17;43.89
64683;BME280;51107;47.652;19.016;2023-04-30T10:11:39;99856.06;;;21.71;41.57
64683;BME280;51107;47.652;19.016;2023-04-30T10:14:13;99856.41;;;21.94;40.32
64683;BME280;51107;47.652;19.016;2023-04-30T10:16:53;99858.56;;;21.66;41.65
64683;BME280;51107;47.652;19.016;2023-04-30T10:19:32;99853.34;;;21.78;42.22
64683;BME280;51107;47.652;19.016;2023-04-30T10:22:02;99849.97;;;21.27;41.44
64683;BME280;51107;47.652;19.016;2023-04-30T10:24:30;99847.91;;;21.11;43.87
64683;BME280;51107;47.652;19.016;2023-04-30T10:26:59;99850.72;;;21.16;43.49
64683;BME280;51107;47.652;19.016;2023-04-30T10:29:28;99857.19;;;20.37;43.13
64683;BME280;51107;47.652;19.016;2023-04-30T10:31:57;99856.56;;;19.97;45.54
64683;BME280;51107;47.652;19.016;2023-04-30T10:35:29;99857.03;;;19.87;46.16
64683;BME280;51107;47.652;19.016;2023-04-30T10:37:56;99858.34;;;19.38;47.19
64683;BME280;51107;47.652;19.016;2023-04-30T10:40:26;99863.03;;;19.35;47.40
64683;BME280;51107;47.652;19.016;2023-04-30T10:42:55;99859.47;;;19.82;47.63
64683;BME280;51107;47.652;19.016;2023-04-30T10:45:37;99858.91;;;19.60;45.63
64683;BME280;51107;47.652;19.016;2023-04-30T10:48:06;99860.06;;;19.77;48.30
64683;BME280;51107;47.652;19.016;2023-04-30T10:50:42;99854.59;;;19.72;46.64
64683;BME280;51107;47.652;19.016;2023-04-30T10:53:16;99853.63;;;19.53;46.85
64683;BME280;51107;47.652;19.016;2023-04-30T10:56:04;99852.25;;;19.37;47.52
64683;BME280;51107;47.652;19.016;2023-04-30T10:58:38;99850.44;;;19.24;46.13
64683;BME280;51107;47.652;19.016;2023-04-30T11:01:15;99851.91;;;18.93;47.50
64683;BME280;51107;47.652;19.016;2023-04-30T11:07:09;99851.84;;;19.27;47.68
64683;BME280;51107;47.652;19.016;2023-04-30T11:09:42;99849.00;;;19.28;49.18
64683;BME280;51107;47.652;19.016;2023-04-30T11:12:19;99846.56;;;19.33;47.96
64683;BME280;51107;47.652;19.016;2023-04-30T11:15:11;99846.19;;;19.23;48.81
64683;BME280;51107;47.652;19.016;2023-04-30T11:17:39;99845.78;;;19.13;49.20
64683;BME280;51107;47.652;19.016;2023-04-30T11:20:18;99853.06;;;19.31;47.84
64683;BME280;51107;47.652;19.016;2023-04-30T11:22:46;99854.72;;;19.25;49.07
64683;BME280;51107;47.652;19.016;2023-04-30T11:25:18;99855.13;;;19.29;48.43
64683;BME280;51107;47.652;19.016;2023-04-30T11:27:46;99845.38;;;19.23;47.34
64683;BME280;51107;47.652;19.016;2023-04-30T11:30:17;99848.41;;;19.40;48.51
64683;BME280;51107;47.652;19.016;2023-04-30T11:32:47;99853.47;;;19.41;50.69
64683;BME280;51107;47.652;19.016;2023-04-30T11:35:17;99847.13;;;19.49;48.28
64683;BME280;51107;47.652;19.016;2023-04-30T11:37:47;99847.19;;;19.29;48.41
64683;BME280;51107;47.652;19.016;2023-04-30T11:40:16;99854.53;;;18.93;49.74
64683;BME280;51107;47.652;19.016;2023-04-30T11:42:44;99850.69;;;18.96;50.20
64683;BME280;51107;47.652;19.016;2023-04-30T11:45:16;99854.31;;;18.88;48.64
64683;BME280;51107;47.652;19.016;2023-04-30T11:47:47;99851.44;;;18.56;50.16
64683;BME280;51107;47.652;19.016;2023-04-30T11:50:17;99850.84;;;18.54;50.13
64683;BME280;51107;47.652;19.016;2023-04-30T11:52:51;99844.91;;;18.25;49.86
64683;BME280;51107;47.652;19.016;2023-04-30T11:55:24;99853.47;;;18.47;49.98
64683;BME280;51107;47.652;19.016;2023-04-30T11:57:55;99847.16;;;18.48;49.74
64683;BME280;51107;47.652;19.016;2023-04-30T12:00:28;99851.41;;;18.36;49.50
64683;BME280;51107;47.652;19.016;2023-04-30T12:02:59;99850.38;;;18.37;50.70
64683;BME280;51107;47.652;19.016;2023-04-30T12:05:28;99844.69;;;18.20;50.34
64683;BME280;51107;47.652;19.016;2023-04-30T12:07:59;99847.72;;;18.30;50.01
64683;BME280;51107;47.652;19.016;2023-04-30T12:10:27;99849.78;;;18.35;51.64
64683;BME280;51107;47.652;19.016;2023-04-30T12:12:56;99841.28;;;18.53;51.89
64683;BME280;51107;47.652;19.016;2023-04-30T12:15:25;99841.75;;;18.90;49.38
64683;BME280;51107;47.652;19.016;2023-04-30T12:17:56;99840.94;;;19.10;50.60
64683;BME280;51107;47.652;19.016;2023-04-30T12:20:26;99843.28;;;19.45;48.33
64683;BME280;51107;47.652;19.016;2023-04-30T12:22:56;99837.75;;;19.66;47.53
64683;BME280;51107;47.652;19.016;2023-04-30T12:25:27;99835.09;;;19.73;47.51
64683;BME280;51107;47.652;19.016;2023-04-30T12:27:58;99835.72;;;19.68;46.77
64683;BME280;51107;47.652;19.016;2023-04-30T12:30:26;99831.03;;;19.71;48.23
64683;BME280;51107;47.652;19.016;2023-04-30T12:32:58;99831.25;;;19.69;48.41
64683;BME280;51107;47.652;19.016;2023-04-30T12:35:29;99837.94;;;19.72;45.37
64683;BME280;51107;47.652;19.016;2023-04-30T12:38:05;99826.59;;;19.64;46.31
64683;BME280;51107;47.652;19.016;2023-04-30T12:40:35;99821.75;;;19.48;45.34
64683;BME280;51107;47.652;19.016;2023-04-30T12:43:05;99817.56;;;19.13;46.66
64683;BME280;51107;47.652;19.016;2023-04-30T12:48:15;99812.69;;;18.83;47.34
64683;BME280;51107;47.652;19.016;2023-04-30T12:51:02;99816.94;;;18.64;46.83
64683;BME280;51107;47.652;19.016;2023-04-30T12:53:43;99810.25;;;18.42;48.04
64683;BME280;51107;47.652;19.016;2023-04-30T12:56:15;99823.41;;;18.48;48.12
64683;BME280;51107;47.652;19.016;2023-04-30T12:58:45;99813.06;;;18.47;48.13
64683;BME280;51107;47.652;19.016;2023-04-30T13:01:19;99820.41;;;18.52;46.24
64683;BME280;51107;47.652;19.016;2023-04-30T13:03:48;99799.50;;;18.50;46.31
64683;BME280;51107;47.652;19.016;2023-04-30T13:06:16;99800.66;;;18.27;47.12
64683;BME280;51107;47.652;19.016;2023-04-30T13:08:45;99800.47;;;18.29;47.87
64683;BME280;51107;47.652;19.016;2023-04-30T13:11:17;99796.84;;;18.43;47.53
64683;BME280;51107;47.652;19.016;2023-04-30T13:13:45;99799.25;;;18.31;48.19
64683;BME280;51107;47.652;19.016;2023-04-30T13:16:14;99797.44;;;18.45;48.57
64683;BME280;51107;47.652;19.016;2023-04-30T13:18:42;99801.13;;;18.44;48.09
64683;BME280;51107;47.652;19.016;2023-04-30T13:21:11;99790.31;;;18.19;49.91
64683;BME280;51107;47.652;19.016;2023-04-30T13:23:40;99788.69;;;18.11;49.96
64683;BME280;51107;47.652;19.016;2023-04-30T13:26:20;99789.50;;;18.12;49.54